Time;durP1;ratioP1;P1;durP2;ratioP2;P2;SDS_P1;SDS_P2;PMS_P1;PMS_P2;Temp;Humidity;BMP_temperature;BMP_pressure;BME280_temperature;BME280_humidity;BME280_pressure;Samples;Min_cycle;Max_cycle;Signal;HPM_P1;HPM_P2
2024/03/17 00:01:45;;;;;;;50.97;45.45;;;10.90;82.20;;;;;;4981323;28;113180;-51
2024/03/17 00:04:11;;;;;;;58.70;46.92;;;11.00;82.10;;;;;;4973838;28;113974;-52
2024/03/17 00:06:37;;;;;;;56.10;46.95;;;10.90;82.20;;;;;;4970819;28;112520;-52
2024/03/17 00:09:06;;;;;;;55.33;45.88;;;10.90;82.30;;;;;;4969476;28;112734;-55
2024/03/17 00:11:32;;;;;;;50.33;43.55;;;10.70;82.50;;;;;;4980504;28;113292;-53
2024/03/17 00:13:58;;;;;;;54.30;47.65;;;10.70;82.30;;;;;;4986334;28;113069;-53
2024/03/17 00:16:24;;;;;;;51.55;45.85;;;10.80;82.30;;;;;;4973779;28;112779;-52
2024/03/17 00:18:49;;;;;;;50.47;43.75;;;10.70;82.10;;;;;;4968672;28;112710;-53
2024/03/17 00:21:15;;;;;;;51.17;45.47;;;10.80;82.30;;;;;;4968404;28;114435;-54
2024/03/17 00:23:41;;;;;;;61.10;47.75;;;10.70;82.10;;;;;;4972172;28;113049;-52
2024/03/17 00:26:07;;;;;;;53.83;45.45;;;10.80;82.00;;;;;;4971483;28;112800;-53
2024/03/17 00:28:33;;;;;;;50.72;44.45;;;10.80;82.00;;;;;;4976780;28;113753;-51
2024/03/17 00:30:59;;;;;;;48.25;42.83;;;10.80;81.90;;;;;;4966634;28;113508;-53
2024/03/17 00:33:24;;;;;;;51.75;42.60;;;10.70;82.10;;;;;;4966226;28;114051;-52
2024/03/17 00:35:51;;;;;;;51.10;44.75;;;10.60;82.00;;;;;;4967746;28;112834;-53
2024/03/17 00:38:16;;;;;;;56.97;45.63;;;10.40;83.00;;;;;;4967356;28;112727;-52
2024/03/17 00:40:42;;;;;;;54.50;45.20;;;10.50;82.70;;;;;;4966303;28;113849;-53
2024/03/17 00:43:08;;;;;;;51.58;44.17;;;10.50;82.70;;;;;;4966430;28;113447;-53
2024/03/17 00:45:34;;;;;;;48.28;42.45;;;10.40;82.80;;;;;;4967401;28;112749;-53
2024/03/17 00:47:59;;;;;;;49.63;44.25;;;10.60;82.20;;;;;;4967381;28;112693;-55
2024/03/17 00:50:25;;;;;;;49.45;43.28;;;10.20;83.50;;;;;;4966224;28;114620;-53
2024/03/17 00:52:51;;;;;;;53.38;42.50;;;10.30;83.60;;;;;;4966138;28;112818;-52
2024/03/17 00:55:16;;;;;;;47.80;42.00;;;10.40;83.00;;;;;;4998944;28;112631;-53
2024/03/17 00:57:42;;;;;;;47.95;42.72;;;10.30;82.80;;;;;;4967148;28;112722;-52
2024/03/17 01:00:11;;;;;;;53.22;44.47;;;10.50;82.80;;;;;;4966143;28;113217;-53
2024/03/17 01:02:37;;;;;;;47.08;41.45;;;10.40;82.50;;;;;;4983857;28;112965;-51
2024/03/17 01:05:06;;;;;;;49.28;42.75;;;10.40;82.80;;;;;;4967474;28;112634;-52
2024/03/17 01:07:33;;;;;;;50.60;42.88;;;10.50;82.70;;;;;;4969477;28;113129;-53
2024/03/17 01:09:58;;;;;;;46.15;41.08;;;10.40;82.70;;;;;;4968689;28;114508;-51
2024/03/17 01:12:25;;;;;;;49.83;43.28;;;10.40;82.90;;;;;;4969346;28;112678;-50
2024/03/17 01:14:50;;;;;;;50.85;42.92;;;10.40;83.10;;;;;;4970522;28;112787;-51
2024/03/17 01:17:18;;;;;;;49.08;41.13;;;10.50;83.10;;;;;;4970307;28;112743;-51
2024/03/17 01:19:44;;;;;;;52.28;43.83;;;10.50;83.00;;;;;;4979533;28;113886;-51
2024/03/17 01:22:10;;;;;;;49.50;42.42;;;10.40;83.20;;;;;;4988868;28;113683;-51
2024/03/17 01:24:37;;;;;;;48.42;42.40;;;10.40;83.30;;;;;;5022072;27;112843;-51
2024/03/17 01:27:03;;;;;;;52.15;41.72;;;10.50;83.30;;;;;;4989880;28;112879;-52
2024/03/17 01:29:28;;;;;;;50.17;41.38;;;10.50;83.00;;;;;;4989087;28;113142;-51
2024/03/17 01:31:55;;;;;;;49.35;41.25;;;10.50;83.20;;;;;;4989010;28;112808;-50
2024/03/17 01:34:22;;;;;;;47.97;39.05;;;10.30;83.40;;;;;;4989615;28;112838;-51
2024/03/17 01:36:48;;;;;;;49.97;38.45;;;10.40;83.00;;;;;;4989677;28;112785;-55
2024/03/17 01:39:15;;;;;;;44.88;37.10;;;10.40;83.00;;;;;;4988396;28;114344;-52
2024/03/17 01:41:41;;;;;;;43.80;37.60;;;10.40;82.90;;;;;;4988877;28;112940;-53
2024/03/17 01:44:07;;;;;;;44.30;38.85;;;10.30;83.00;;;;;;4989748;28;112518;-52
2024/03/17 01:46:33;;;;;;;49.13;40.17;;;10.30;83.40;;;;;;4989554;28;112799;-52
2024/03/17 01:48:59;;;;;;;48.33;41.05;;;10.30;83.20;;;;;;4988349;28;113377;-52
2024/03/17 01:51:25;;;;;;;48.38;39.83;;;10.20;83.40;;;;;;4988651;28;112556;-52
2024/03/17 01:53:51;;;;;;;45.85;40.17;;;10.30;83.50;;;;;;4988231;28;112845;-52
2024/03/17 01:56:17;;;;;;;48.92;43.40;;;10.20;83.50;;;;;;4989541;28;112853;-52
2024/03/17 01:58:46;;;;;;;52.92;42.70;;;10.20;83.60;;;;;;4988432;28;114369;-53
2024/03/17 02:01:15;;;;;;;60.08;42.67;;;10.20;83.60;;;;;;4988099;28;114278;-52
2024/03/17 02:03:41;;;;;;;50.90;43.50;;;10.20;83.70;;;;;;4989542;28;112752;-54
2024/03/17 02:06:09;;;;;;;54.20;46.20;;;10.20;83.60;;;;;;4989878;28;112714;-53
2024/03/17 02:08:52;;;;;;;63.95;46.72;;;10.30;83.70;;;;;;4987790;28;113319;-53
2024/03/17 02:11:28;;;;;;;59.05;48.42;;;10.20;83.80;;;;;;4988061;28;113156;-51
2024/03/17 02:13:55;;;;;;;58.80;50.42;;;10.20;84.00;;;;;;4989350;28;112592;-52
2024/03/17 02:16:24;;;;;;;56.80;50.63;;;10.30;84.40;;;;;;4989208;28;112877;-53
2024/03/17 02:18:55;;;;;;;56.42;50.38;;;10.30;84.30;;;;;;4974043;28;113264;-52
2024/03/17 02:21:24;;;;;;;53.70;47.88;;;10.30;84.10;;;;;;4988290;28;112881;-52
2024/03/17 02:23:51;;;;;;;54.70;47.53;;;10.20;84.00;;;;;;4987587;28;112743;-53
2024/03/17 02:26:18;;;;;;;59.30;48.15;;;10.30;83.80;;;;;;4989009;28;112822;-52
2024/03/17 02:28:45;;;;;;;55.55;49.58;;;10.20;83.80;;;;;;4987382;28;114883;-52
2024/03/17 02:31:13;;;;;;;51.38;45.47;;;10.10;84.00;;;;;;4987709;28;113981;-55
2024/03/17 02:33:38;;;;;;;55.75;46.40;;;10.10;84.10;;;;;;4986485;28;112637;-52
2024/03/17 02:36:07;;;;;;;50.85;44.92;;;10.20;83.90;;;;;;4988729;28;112955;-52
2024/03/17 02:41:18;;;;;;;53.38;47.67;;;10.10;83.80;;;;;;4967615;28;112683;-51
2024/03/17 02:43:45;;;;;;;58.47;51.35;;;10.00;84.10;;;;;;4984706;28;113021;-52
2024/03/17 02:46:12;;;;;;;59.85;50.05;;;10.00;84.20;;;;;;4989041;28;112754;-54
2024/03/17 02:48:44;;;;;;;57.60;51.42;;;10.00;84.00;;;;;;4987311;28;113272;-53
2024/03/17 02:51:11;;;;;;;65.75;54.72;;;10.10;84.20;;;;;;4975010;28;112969;-53
2024/03/17 02:53:37;;;;;;;61.78;52.25;;;10.10;84.10;;;;;;4988466;28;114813;-52
2024/03/17 02:56:02;;;;;;;57.22;51.03;;;10.10;84.30;;;;;;4988626;28;112772;-52
2024/03/17 02:58:28;;;;;;;59.08;52.08;;;10.10;84.20;;;;;;4987505;28;113211;-52
2024/03/17 03:00:53;;;;;;;61.90;53.65;;;10.10;83.80;;;;;;4987337;28;113031;-53
2024/03/17 03:03:19;;;;;;;59.33;52.85;;;10.10;83.60;;;;;;4988471;28;113138;-52
2024/03/17 03:05:45;;;;;;;60.38;53.88;;;10.00;83.60;;;;;;4988229;28;112774;-52
2024/03/17 03:08:11;;;;;;;60.08;53.50;;;10.00;84.00;;;;;;4973779;28;113140;-52
2024/03/17 03:10:37;;;;;;;58.85;52.13;;;10.00;84.10;;;;;;4987406;28;113005;-53
2024/03/17 03:13:03;;;;;;;64.03;56.47;;;10.00;83.90;;;;;;4988356;28;112567;-52
2024/03/17 03:15:32;;;;;;;61.28;54.08;;;10.10;83.70;;;;;;4988224;28;113054;-52
2024/03/17 03:17:58;;;;;;;64.15;57.40;;;10.10;83.80;;;;;;4986950;28;113439;-52
2024/03/17 03:20:23;;;;;;;66.85;58.85;;;10.00;83.70;;;;;;4987256;28;112825;-53
2024/03/17 03:22:49;;;;;;;75.00;62.30;;;9.90;84.00;;;;;;4988073;28;112787;-52
2024/03/17 03:25:15;;;;;;;66.18;58.83;;;9.90;84.00;;;;;;4988433;28;112771;-52
2024/03/17 03:27:40;;;;;;;65.65;58.25;;;9.90;84.10;;;;;;4987403;28;113832;-53
2024/03/17 03:30:08;;;;;;;65.35;57.03;;;9.90;84.20;;;;;;4986576;28;112851;-52
2024/03/17 03:32:34;;;;;;;65.80;54.60;;;9.90;84.10;;;;;;4987880;28;112694;-52
2024/03/17 03:34:59;;;;;;;59.38;53.03;;;9.80;84.30;;;;;;4987981;28;112725;-53
2024/03/17 03:37:25;;;;;;;61.70;55.20;;;9.90;84.20;;;;;;4987070;28;113214;-53
2024/03/17 03:39:51;;;;;;;59.65;53.33;;;9.90;83.80;;;;;;4986399;28;113809;-52
2024/03/17 03:42:17;;;;;;;59.22;51.13;;;9.80;83.80;;;;;;4974384;28;112897;-52
2024/03/17 03:44:43;;;;;;;55.50;49.58;;;9.70;84.10;;;;;;4986598;28;113240;-52
2024/03/17 03:47:09;;;;;;;57.70;51.45;;;9.70;84.50;;;;;;4986749;28;113180;-52
2024/03/17 03:49:34;;;;;;;58.85;52.42;;;9.70;84.10;;;;;;4987155;28;112660;-55
2024/03/17 03:52:00;;;;;;;58.58;52.17;;;9.70;84.20;;;;;;4987855;28;113207;-52
2024/03/17 03:54:25;;;;;;;62.55;52.38;;;9.70;84.20;;;;;;4988080;28;112778;-52
2024/03/17 03:56:51;;;;;;;60.38;54.08;;;9.60;84.10;;;;;;4986788;28;113709;-52
2024/03/17 03:59:17;;;;;;;59.90;53.53;;;9.60;84.10;;;;;;4986513;28;114966;-52
2024/03/17 04:01:43;;;;;;;66.82;58.13;;;9.70;84.10;;;;;;4987814;28;112786;-51
2024/03/17 04:04:09;;;;;;;66.57;59.08;;;9.60;84.00;;;;;;4987842;28;112755;-51
2024/03/17 04:06:37;;;;;;;69.32;61.78;;;9.60;84.30;;;;;;4987151;28;114692;-54
2024/03/17 04:09:05;;;;;;;71.53;62.20;;;9.70;84.60;;;;;;4986527;28;113013;-52
2024/03/17 04:11:33;;;;;;;74.45;62.17;;;9.80;84.20;;;;;;4987613;28;112835;-53
2024/03/17 04:14:00;;;;;;;74.30;64.95;;;9.80;84.60;;;;;;4987414;28;112943;-52
2024/03/17 04:16:26;;;;;;;77.28;65.53;;;9.80;84.70;;;;;;4986629;28;113380;-52
2024/03/17 04:18:52;;;;;;;70.85;62.38;;;9.80;84.20;;;;;;4986556;28;113225;-52
2024/03/17 04:21:18;;;;;;;70.45;62.58;;;9.90;84.20;;;;;;4987121;28;112606;-54
2024/03/17 04:23:43;;;;;;;79.32;66.03;;;9.80;84.30;;;;;;4987259;28;112708;-52
2024/03/17 04:26:09;;;;;;;77.07;64.65;;;9.70;84.40;;;;;;4986542;28;113274;-51
2024/03/17 04:28:35;;;;;;;72.57;64.70;;;9.80;84.70;;;;;;4986555;28;112745;-52
2024/03/17 04:31:08;;;;;;;75.85;67.60;;;9.80;84.80;;;;;;4987365;28;112479;-52
2024/03/17 04:33:34;;;;;;;75.53;67.20;;;9.80;84.40;;;;;;4987407;28;112690;-52
2024/03/17 04:36:02;;;;;;;76.47;66.32;;;9.80;84.30;;;;;;4986263;28;114098;-52
2024/03/17 04:38:27;;;;;;;75.85;65.55;;;9.80;84.20;;;;;;4986255;28;112589;-52
2024/03/17 04:41:04;;;;;;;72.15;63.80;;;9.80;84.40;;;;;;4978737;28;112816;-52
2024/03/17 04:43:32;;;;;;;74.20;62.88;;;9.80;84.20;;;;;;4986902;28;112837;-52
2024/03/17 04:46:05;;;;;;;73.10;61.28;;;9.80;84.00;;;;;;4989603;28;113441;-51
2024/03/17 04:48:32;;;;;;;69.32;61.78;;;9.80;83.90;;;;;;4989673;28;112897;-51
2024/03/17 04:50:59;;;;;;;66.85;59.60;;;9.80;83.90;;;;;;4990698;28;112907;-53
2024/03/17 04:53:25;;;;;;;66.00;59.00;;;9.80;83.90;;;;;;4990692;28;112869;-52
2024/03/17 04:56:05;;;;;;;74.55;66.05;;;9.80;83.70;;;;;;4989580;28;113109;-52
2024/03/17 04:58:34;;;;;;;72.38;63.35;;;9.70;83.50;;;;;;4989244;28;114601;-51
2024/03/17 05:01:08;;;;;;;78.03;64.43;;;9.60;83.80;;;;;;4990240;28;112870;-53
2024/03/17 05:03:35;;;;;;;68.00;60.50;;;9.50;84.20;;;;;;4990238;28;112694;-53
2024/03/17 05:06:02;;;;;;;74.25;64.68;;;9.60;84.40;;;;;;4989828;28;113257;-52
2024/03/17 05:08:29;;;;;;;72.05;61.90;;;9.50;84.20;;;;;;4988720;28;112976;-53
2024/03/17 05:10:59;;;;;;;75.90;67.57;;;9.60;84.10;;;;;;4990489;28;112944;-54
2024/03/17 05:13:27;;;;;;;73.13;64.15;;;9.50;84.10;;;;;;4990379;28;112692;-53
2024/03/17 05:15:52;;;;;;;77.50;65.72;;;9.50;84.40;;;;;;4988918;28;114477;-55
2024/03/17 05:18:19;;;;;;;73.43;64.13;;;9.60;84.40;;;;;;4988945;28;113724;-53
2024/03/17 05:20:47;;;;;;;77.13;65.57;;;9.50;84.60;;;;;;4989906;28;112555;-52
2024/03/17 05:23:13;;;;;;;77.05;68.57;;;9.50;84.80;;;;;;4990223;28;112658;-52
2024/03/17 05:25:39;;;;;;;76.72;67.25;;;9.50;84.90;;;;;;4988761;28;114686;-53
2024/03/17 05:28:05;;;;;;;78.13;69.45;;;9.50;84.90;;;;;;4989114;28;113015;-52
2024/03/17 05:30:30;;;;;;;78.07;67.85;;;9.60;84.70;;;;;;4990016;28;112527;-52
2024/03/17 05:32:56;;;;;;;78.13;67.20;;;9.60;84.40;;;;;;4990051;28;112804;-51
2024/03/17 05:35:22;;;;;;;76.10;65.85;;;9.60;84.60;;;;;;4988994;28;113596;-52
2024/03/17 05:37:49;;;;;;;81.40;69.15;;;9.60;84.60;;;;;;4988801;28;112588;-54
2024/03/17 05:40:14;;;;;;;77.13;68.65;;;9.50;84.70;;;;;;4986485;28;112554;-52
2024/03/17 05:42:43;;;;;;;73.60;65.25;;;9.60;84.60;;;;;;4979501;28;112688;-53
2024/03/17 05:45:13;;;;;;;77.38;69.05;;;9.60;84.40;;;;;;4988748;28;113295;-52
2024/03/17 05:47:41;;;;;;;76.90;67.65;;;9.70;84.80;;;;;;4988590;28;113020;-52
2024/03/17 05:50:07;;;;;;;77.57;68.53;;;9.70;85.00;;;;;;4989452;28;112662;-52
2024/03/17 05:52:32;;;;;;;76.95;68.63;;;9.70;85.00;;;;;;4989533;28;113016;-52
2024/03/17 05:54:58;;;;;;;76.43;67.93;;;9.70;85.10;;;;;;4988394;28;113132;-52
2024/03/17 05:57:24;;;;;;;73.10;64.93;;;9.80;84.90;;;;;;4988488;28;112807;-54
2024/03/17 05:59:50;;;;;;;77.38;68.60;;;9.80;85.00;;;;;;4989504;28;112561;-52
2024/03/17 06:02:16;;;;;;;75.00;67.00;;;9.90;84.90;;;;;;4989465;28;112705;-53
2024/03/17 06:04:41;;;;;;;80.10;71.22;;;9.90;84.80;;;;;;4988540;28;113322;-52
2024/03/17 06:07:07;;;;;;;77.85;68.32;;;9.90;84.90;;;;;;4988791;28;113160;-54
2024/03/17 06:09:33;;;;;;;73.20;65.30;;;9.90;84.90;;;;;;4988885;28;112805;-52
2024/03/17 06:11:58;;;;;;;73.93;65.97;;;10.00;84.90;;;;;;4989485;28;112642;-54
2024/03/17 06:14:24;;;;;;;73.70;65.35;;;10.10;84.70;;;;;;4987919;28;114823;-52
2024/03/17 06:16:50;;;;;;;76.13;67.28;;;10.00;84.80;;;;;;4986929;28;116019;-52
2024/03/17 06:19:15;;;;;;;77.75;66.38;;;10.10;84.90;;;;;;4989259;28;112918;-53
2024/03/17 06:21:41;;;;;;;79.70;69.82;;;10.10;85.00;;;;;;4989258;28;112811;-53
2024/03/17 06:24:07;;;;;;;76.63;66.82;;;10.20;84.80;;;;;;4987600;28;114925;-54
2024/03/17 06:26:34;;;;;;;76.13;66.45;;;10.30;84.60;;;;;;4988360;28;113295;-51
2024/03/17 06:29:03;;;;;;;77.68;69.07;;;10.40;84.20;;;;;;4989065;28;112812;-51
2024/03/17 06:31:28;;;;;;;80.55;71.55;;;10.40;84.50;;;;;;4988739;28;112825;-54
2024/03/17 06:33:54;;;;;;;79.47;70.88;;;10.50;84.30;;;;;;4988261;28;113765;-53
2024/03/17 06:36:19;;;;;;;75.70;65.45;;;10.60;84.30;;;;;;4987743;28;112698;-52
2024/03/17 06:38:45;;;;;;;72.18;64.07;;;10.70;84.10;;;;;;4988779;28;112682;-52
2024/03/17 06:41:12;;;;;;;79.30;68.53;;;10.80;83.90;;;;;;4977704;28;113223;-52
2024/03/17 06:43:39;;;;;;;76.22;68.13;;;10.60;84.80;;;;;;4984960;28;113247;-52
2024/03/17 06:46:05;;;;;;;77.03;68.30;;;10.80;84.60;;;;;;4987589;28;112588;-52
2024/03/17 06:48:30;;;;;;;75.90;67.72;;;10.90;84.10;;;;;;4988545;28;112509;-53
2024/03/17 06:50:56;;;;;;;76.68;68.38;;;11.00;83.80;;;;;;4988572;28;112828;-52
2024/03/17 06:53:22;;;;;;;76.28;68.00;;;11.10;83.60;;;;;;4987573;28;113219;-52
2024/03/17 06:55:55;;;;;;;73.30;64.80;;;11.20;83.50;;;;;;4987352;28;113793;-52
2024/03/17 06:58:22;;;;;;;72.43;64.53;;;11.30;83.70;;;;;;4988701;28;112573;-55
2024/03/17 07:01:01;;;;;;;71.32;63.80;;;11.40;83.00;;;;;;4988386;28;112683;-52
2024/03/17 07:03:28;;;;;;;71.22;62.80;;;11.40;83.40;;;;;;4985444;28;114857;-52
2024/03/17 07:05:58;;;;;;;74.18;65.93;;;11.50;82.70;;;;;;4987406;28;112817;-52
2024/03/17 07:08:25;;;;;;;73.40;65.35;;;11.80;82.20;;;;;;4987945;28;113230;-54
2024/03/17 07:11:07;;;;;;;70.57;62.88;;;11.70;82.10;;;;;;4988301;28;112800;-52
2024/03/17 07:13:35;;;;;;;71.13;63.43;;;11.90;81.90;;;;;;4987287;28;114434;-52
2024/03/17 07:16:02;;;;;;;73.80;65.95;;;11.70;82.60;;;;;;4986845;28;112795;-52
2024/03/17 07:18:29;;;;;;;68.72;61.25;;;11.90;82.60;;;;;;4986819;28;112914;-52
2024/03/17 07:20:59;;;;;;;68.85;61.38;;;12.20;82.20;;;;;;4988242;28;113434;-58
2024/03/17 07:23:25;;;;;;;69.00;61.50;;;12.40;81.70;;;;;;4987451;28;113201;-52
2024/03/17 07:26:01;;;;;;;68.07;60.83;;;12.40;81.80;;;;;;4987141;28;113144;-52
2024/03/17 07:28:27;;;;;;;69.13;61.97;;;12.80;80.80;;;;;;4988257;28;112727;-53
2024/03/17 07:30:55;;;;;;;65.85;58.95;;;12.90;80.10;;;;;;4987704;28;112852;-52
2024/03/17 07:33:22;;;;;;;69.28;59.90;;;12.90;80.30;;;;;;4987011;28;114566;-52
2024/03/17 07:35:51;;;;;;;;;;;12.80;80.10;;;;;;4987521;28;113089;-52
2024/03/17 07:38:17;;;;;;;67.15;59.90;;;12.90;80.30;;;;;;4990242;28;112902;-52
2024/03/17 07:40:43;;;;;;;65.85;57.47;;;12.80;80.90;;;;;;4980982;28;112656;-52
2024/03/17 07:43:09;;;;;;;65.72;58.53;;;12.80;80.40;;;;;;4969333;28;114359;-52
2024/03/17 07:45:35;;;;;;;64.22;57.50;;;13.20;80.10;;;;;;4969899;28;112795;-52
2024/03/17 07:48:00;;;;;;;67.07;59.78;;;13.40;79.20;;;;;;4968128;28;112644;-53
2024/03/17 07:50:26;;;;;;;65.80;58.58;;;13.70;78.70;;;;;;4967776;28;112828;-52
2024/03/17 07:52:52;;;;;;;60.90;54.58;;;13.80;78.40;;;;;;4967275;28;113758;-53
2024/03/17 07:55:18;;;;;;;69.22;57.72;;;13.90;78.30;;;;;;4966930;28;113077;-52
2024/03/17 07:57:43;;;;;;;64.68;57.58;;;13.60;78.40;;;;;;4967638;28;112496;-52
2024/03/17 08:00:15;;;;;;;65.03;57.80;;;13.60;79.00;;;;;;4967740;28;113225;-52
2024/03/17 08:02:48;;;;;;;66.40;57.85;;;13.70;78.90;;;;;;4967017;28;113868;-53
2024/03/17 08:05:13;;;;;;;65.82;58.63;;;13.90;77.70;;;;;;4966851;28;112744;-52
2024/03/17 08:07:41;;;;;;;67.47;57.17;;;14.00;78.20;;;;;;4968098;28;113205;-52
2024/03/17 08:10:08;;;;;;;65.85;57.15;;;14.10;77.90;;;;;;4967588;28;112611;-52
2024/03/17 08:12:33;;;;;;;65.03;57.33;;;14.30;77.00;;;;;;4966316;28;113364;-53
2024/03/17 08:14:59;;;;;;;66.25;58.38;;;14.30;77.00;;;;;;4967156;28;112824;-52
2024/03/17 08:17:25;;;;;;;68.03;59.55;;;14.00;77.70;;;;;;4974076;28;112849;-53
2024/03/17 08:19:51;;;;;;;64.85;57.78;;;13.90;78.70;;;;;;4973488;28;112976;-53
2024/03/17 08:22:17;;;;;;;63.45;56.13;;;14.30;77.40;;;;;;4976414;28;114452;-53
2024/03/17 08:24:43;;;;;;;62.38;55.58;;;14.20;77.30;;;;;;4975169;28;112947;-52
2024/03/17 08:27:09;;;;;;;63.17;56.13;;;14.80;75.80;;;;;;4980270;28;113032;-52
2024/03/17 08:29:34;;;;;;;64.20;56.30;;;15.20;74.80;;;;;;4980637;28;112676;-52
2024/03/17 08:32:00;;;;;;;60.20;53.90;;;15.90;72.90;;;;;;4982753;28;113654;-52
2024/03/17 08:34:27;;;;;;;60.42;54.00;;;16.20;71.70;;;;;;4983988;28;112947;-52
2024/03/17 08:36:52;;;;;;;60.55;54.30;;;16.00;71.90;;;;;;4986222;28;112533;-52
2024/03/17 08:39:18;;;;;;;61.08;54.38;;;15.80;71.90;;;;;;4988314;28;112689;-52
2024/03/17 08:41:45;;;;;;;59.75;53.50;;;15.40;73.60;;;;;;4971456;28;113505;-53
2024/03/17 08:44:11;;;;;;;61.70;55.17;;;15.70;73.10;;;;;;4980252;28;112898;-52
2024/03/17 08:46:37;;;;;;;61.00;54.53;;;15.90;72.80;;;;;;4970666;28;112633;-52
2024/03/17 08:49:02;;;;;;;65.57;58.20;;;16.00;72.00;;;;;;4969154;28;113227;-52
2024/03/17 08:51:28;;;;;;;66.03;57.40;;;15.70;72.70;;;;;;4979082;28;113880;-53
2024/03/17 08:53:54;;;;;;;64.43;57.30;;;15.70;72.90;;;;;;4978287;28;114020;-52
2024/03/17 08:56:20;;;;;;;63.40;56.13;;;15.80;72.40;;;;;;4982887;28;112584;-52
2024/03/17 08:58:46;;;;;;;63.15;56.25;;;16.30;71.80;;;;;;4983956;28;113126;-52
2024/03/17 09:01:14;;;;;;;63.70;56.70;;;16.20;71.80;;;;;;4984483;28;113288;-52
2024/03/17 09:03:40;;;;;;;61.85;55.03;;;16.50;70.40;;;;;;4980206;28;113924;-55
2024/03/17 09:06:16;;;;;;;63.75;56.78;;;16.70;69.20;;;;;;4971255;28;112926;-54
2024/03/17 09:08:41;;;;;;;63.58;55.90;;;16.90;70.10;;;;;;4970607;28;113508;-52
2024/03/17 09:11:12;;;;;;;61.25;54.38;;;17.40;69.10;;;;;;4980599;28;113218;-52
2024/03/17 09:13:38;;;;;;;61.15;54.70;;;17.90;67.20;;;;;;4969515;28;112870;-53
2024/03/17 09:16:04;;;;;;;60.40;54.00;;;18.10;66.50;;;;;;4970088;28;112663;-52
2024/03/17 09:18:33;;;;;;;62.20;55.65;;;18.70;65.50;;;;;;4975185;28;113737;-52
2024/03/17 09:21:04;;;;;;;59.83;53.58;;;18.90;64.20;;;;;;4981149;28;113259;-52
2024/03/17 09:23:31;;;;;;;60.60;54.28;;;19.00;64.10;;;;;;4969352;28;113431;-51
2024/03/17 09:25:57;;;;;;;59.05;52.92;;;19.20;62.10;;;;;;5002158;28;113035;-52
2024/03/17 09:28:23;;;;;;;61.47;54.88;;;19.50;62.70;;;;;;4969265;28;112657;-51
2024/03/17 09:30:49;;;;;;;59.40;53.25;;;18.60;64.60;;;;;;4969033;28;113712;-52
2024/03/17 09:33:15;;;;;;;60.28;54.28;;;19.20;63.20;;;;;;4968847;28;112664;-52
2024/03/17 09:35:40;;;;;;;56.90;51.13;;;19.60;61.60;;;;;;4970019;28;112649;-52
2024/03/17 09:38:06;;;;;;;56.63;50.90;;;19.80;60.90;;;;;;4969760;28;113159;-51
2024/03/17 09:40:32;;;;;;;58.40;52.55;;;20.60;60.00;;;;;;4968453;28;114702;-52
2024/03/17 09:42:58;;;;;;;58.47;52.78;;;20.90;57.90;;;;;;4980633;28;112694;-52
2024/03/17 09:45:26;;;;;;;55.88;50.50;;;21.00;57.70;;;;;;4989620;28;112531;-53
2024/03/17 09:47:52;;;;;;;56.88;51.33;;;21.90;56.20;;;;;;4989760;28;112690;-52
2024/03/17 09:50:18;;;;;;;52.45;47.35;;;21.70;55.40;;;;;;4988391;28;113158;-51
2024/03/17 09:52:45;;;;;;;54.05;48.53;;;21.90;54.60;;;;;;4983245;28;112618;-53
2024/03/17 09:55:19;;;;;;;53.65;48.63;;;21.60;54.60;;;;;;4972706;28;112521;-52
2024/03/17 09:57:46;;;;;;;52.92;47.67;;;21.80;54.50;;;;;;4968294;28;113137;-54
2024/03/17 10:00:14;;;;;;;51.17;46.33;;;22.20;53.40;;;;;;4982005;28;113342;-51
2024/03/17 10:02:47;;;;;;;52.13;47.15;;;22.40;52.60;;;;;;4968252;28;113162;-52
2024/03/17 10:05:23;;;;;;;49.72;45.03;;;22.50;51.90;;;;;;4969642;28;113019;-53
2024/03/17 10:07:53;;;;;;;51.75;47.08;;;23.70;49.70;;;;;;4976793;28;112818;-52
2024/03/17 10:10:20;;;;;;;53.00;48.20;;;23.20;50.20;;;;;;4974889;28;113189;-52
2024/03/17 10:12:53;;;;;;;53.53;48.70;;;22.90;51.20;;;;;;4983065;28;113370;-52
2024/03/17 10:15:19;;;;;;;;;;;23.40;50.10;;;;;;4974768;28;112776;-54
2024/03/17 10:17:45;;;;;;;54.15;49.30;;;22.80;51.00;;;;;;4971464;28;112732;-51
2024/03/17 10:20:16;;;;;;;53.92;48.88;;;22.70;51.50;;;;;;4968268;28;113213;-53
2024/03/17 10:23:03;;;;;;;53.45;48.05;;;22.50;52.20;;;;;;4968043;28;112939;-52
2024/03/17 10:25:34;;;;;;;52.15;47.33;;;22.90;50.60;;;;;;4969975;28;112548;-52
2024/03/17 10:28:01;;;;;;;52.00;47.13;;;22.90;50.90;;;;;;4970606;28;113594;-51
2024/03/17 10:30:29;;;;;;;51.30;46.70;;;23.40;50.10;;;;;;4967860;28;114506;-52
2024/03/17 10:32:58;;;;;;;53.08;48.20;;;24.40;47.60;;;;;;4967683;28;113127;-52
2024/03/17 10:35:31;;;;;;;53.53;48.72;;;24.10;47.60;;;;;;4968868;28;112707;-51
2024/03/17 10:38:02;;;;;;;50.47;46.13;;;24.90;45.60;;;;;;4968603;28;114791;-51
2024/03/17 10:40:38;;;;;;;54.08;49.22;;;25.40;45.90;;;;;;4966356;28;113214;-52
2024/03/17 10:43:05;;;;;;;52.15;47.63;;;25.60;44.00;;;;;;4978466;28;113138;-52
2024/03/17 10:45:38;;;;;;;53.67;48.88;;;24.80;45.90;;;;;;4986540;28;112956;-52
2024/03/17 10:48:09;;;;;;;53.95;49.15;;;24.00;48.20;;;;;;4986841;28;113031;-52
2024/03/17 10:50:39;;;;;;;52.65;48.08;;;23.80;47.60;;;;;;4986373;28;114317;-52
2024/03/17 10:53:09;;;;;;;51.15;46.47;;;23.50;48.50;;;;;;4987038;28;113086;-53
2024/03/17 10:55:44;;;;;;;50.55;46.00;;;24.10;47.70;;;;;;4988247;28;112531;-52
2024/03/17 10:58:33;;;;;;;51.83;47.10;;;22.90;49.60;;;;;;4988620;28;112869;-53
2024/03/17 11:01:02;;;;;;;52.50;47.80;;;23.10;49.00;;;;;;4987563;28;113517;-52
2024/03/17 11:03:33;;;;;;;50.00;45.40;;;23.50;48.30;;;;;;4987471;28;113190;-52
2024/03/17 11:06:03;;;;;;;52.55;47.80;;;23.90;47.90;;;;;;4988879;28;112903;-54
2024/03/17 11:08:31;;;;;;;50.55;45.90;;;23.70;48.00;;;;;;4988140;28;112771;-52
2024/03/17 11:10:57;;;;;;;49.25;44.78;;;23.30;49.60;;;;;;4987417;28;113214;-52
2024/03/17 11:13:26;;;;;;;50.38;45.83;;;23.60;48.60;;;;;;4987463;28;113080;-53
2024/03/17 11:15:57;;;;;;;48.50;44.05;;;23.30;48.60;;;;;;4988042;28;112837;-52
2024/03/17 11:18:23;;;;;;;52.95;47.95;;;24.60;46.50;;;;;;4988123;28;112958;-52
2024/03/17 11:21:10;;;;;;;49.53;45.13;;;24.20;46.70;;;;;;4986759;28;114417;-51
2024/03/17 11:23:37;;;;;;;;;;;24.70;45.70;;;;;;4987620;28;113828;-52
2024/03/17 11:26:04;;;;;;;50.90;46.20;;;24.70;45.90;;;;;;4990147;28;112566;-52
2024/03/17 11:28:42;;;;;;;52.35;47.38;;;23.60;47.40;;;;;;4988319;28;113116;-52
2024/03/17 11:31:32;;;;;;;51.95;47.15;;;24.10;47.80;;;;;;4987025;28;113258;-51
2024/03/17 11:34:07;;;;;;;50.80;45.97;;;25.00;45.40;;;;;;4987083;28;112729;-53
2024/03/17 11:36:33;;;;;;;51.88;47.17;;;25.10;45.60;;;;;;4987777;28;112655;-53
2024/03/17 11:39:06;;;;;;;53.90;48.97;;;24.00;47.10;;;;;;4988013;28;112810;-53
2024/03/17 11:41:43;;;;;;;50.28;45.67;;;23.30;48.20;;;;;;4973005;28;113391;-52
2024/03/17 11:44:21;;;;;;;51.40;46.47;;;22.90;49.70;;;;;;4974266;28;113651;-52
2024/03/17 11:46:58;;;;;;;52.40;47.40;;;22.60;50.80;;;;;;4987945;28;114756;-52
2024/03/17 11:49:29;;;;;;;52.83;48.00;;;23.90;47.60;;;;;;4987550;28;112661;-51
2024/03/17 11:52:00;;;;;;;51.75;46.78;;;24.20;46.90;;;;;;4986482;28;113474;-53
2024/03/17 11:54:31;;;;;;;54.30;49.28;;;25.60;45.70;;;;;;4986643;28;113767;-54
2024/03/17 11:57:07;;;;;;;53.63;48.60;;;25.80;44.50;;;;;;4987554;28;112970;-52
2024/03/17 11:59:33;;;;;;;55.53;50.28;;;24.90;45.10;;;;;;4987436;28;112782;-52
2024/03/17 12:01:59;;;;;;;54.65;49.38;;;24.40;45.60;;;;;;4986189;28;114507;-53
2024/03/17 12:04:25;;;;;;;52.63;47.95;;;24.00;47.50;;;;;;4986403;28;113836;-52
2024/03/17 12:06:51;;;;;;;52.40;47.30;;;25.00;46.10;;;;;;4986567;28;113054;-54
2024/03/17 12:09:28;;;;;;;52.58;47.50;;;24.70;46.60;;;;;;4987319;28;113001;-52
2024/03/17 12:12:08;;;;;;;54.20;49.05;;;23.70;48.10;;;;;;4966673;28;113346;-51
2024/03/17 12:14:35;;;;;;;54.67;49.38;;;22.50;50.50;;;;;;4966354;28;115521;-51
2024/03/17 12:17:07;;;;;;;58.08;52.47;;;22.30;50.70;;;;;;4967711;28;112877;-54
2024/03/17 12:19:33;;;;;;;54.42;48.60;;;21.90;52.30;;;;;;4967693;28;112779;-53
2024/03/17 12:22:00;;;;;;;54.60;49.38;;;22.40;51.50;;;;;;4966543;28;113289;-53
2024/03/17 12:24:28;;;;;;;55.15;49.92;;;23.00;49.80;;;;;;4966575;28;113189;-53
2024/03/17 12:26:59;;;;;;;54.97;49.60;;;22.50;51.40;;;;;;4967343;28;112543;-53